sensor_id;sensor_type;location;lat;lon;timestamp;pressure;altitude;pressure_sealevel;temperature;humidity
70103;BME280;57470;50.034;15.256;2023-04-01T00:01:44;97767.16;;;9.47;94.15
70103;BME280;57470;50.034;15.256;2023-04-01T00:04:09;97769.81;;;9.56;94.34
70103;BME280;57470;50.034;15.256;2023-04-01T00:06:35;97773.31;;;9.47;94.87
70103;BME280;57470;50.034;15.256;2023-04-01T00:09:00;97771.47;;;9.67;94.27
70103;BME280;57470;50.034;15.256;2023-04-01T00:11:26;97767.16;;;9.56;94.27
70103;BME280;57470;50.034;15.256;2023-04-01T00:13:53;97762.97;;;9.54;93.97
70103;BME280;57470;50.034;15.256;2023-04-01T00:16:18;97770.66;;;9.57;93.55
70103;BME280;57470;50.034;15.256;2023-04-01T00:18:44;97764.78;;;9.63;93.79
70103;BME280;57470;50.034;15.256;2023-04-01T00:21:11;97762.00;;;9.64;92.99
70103;BME280;57470;50.034;15.256;2023-04-01T00:23:37;97767.44;;;9.53;94.25
70103;BME280;57470;50.034;15.256;2023-04-01T00:26:03;97762.41;;;9.50;94.70
70103;BME280;57470;50.034;15.256;2023-04-01T00:28:29;97766.19;;;9.48;95.78
70103;BME280;57470;50.034;15.256;2023-04-01T00:30:54;97763.22;;;9.41;95.76
70103;BME280;57470;50.034;15.256;2023-04-01T00:33:20;97763.09;;;9.52;96.37
70103;BME280;57470;50.034;15.256;2023-04-01T00:35:46;97759.34;;;9.45;95.93
70103;BME280;57470;50.034;15.256;2023-04-01T00:38:12;97763.66;;;9.46;96.55
70103;BME280;57470;50.034;15.256;2023-04-01T00:40:40;97761.16;;;9.64;94.99
70103;BME280;57470;50.034;15.256;2023-04-01T00:43:16;97765.34;;;9.57;95.09
70103;BME280;57470;50.034;15.256;2023-04-01T00:45:44;97769.25;;;9.53;95.09
70103;BME280;57470;50.034;15.256;2023-04-01T00:48:18;97776.22;;;9.54;95.53
70103;BME280;57470;50.034;15.256;2023-04-01T00:50:50;97766.72;;;9.51;95.29
70103;BME280;57470;50.034;15.256;2023-04-01T00:53:18;97758.75;;;9.51;96.14
70103;BME280;57470;50.034;15.256;2023-04-01T00:55:50;97754.16;;;9.34;97.17
70103;BME280;57470;50.034;15.256;2023-04-01T00:58:18;97755.44;;;9.30;98.52
70103;BME280;57470;50.034;15.256;2023-04-01T01:00:47;97756.25;;;9.21;99.41
70103;BME280;57470;50.034;15.256;2023-04-01T01:03:13;97747.59;;;9.19;99.79
70103;BME280;57470;50.034;15.256;2023-04-01T01:11:29;97754.97;;;9.15;100.00
70103;BME280;57470;50.034;15.256;2023-04-01T01:14:29;97755.13;;;9.23;100.00
70103;BME280;57470;50.034;15.256;2023-04-01T01:17:05;97748.44;;;9.10;100.00
70103;BME280;57470;50.034;15.256;2023-04-01T01:19:40;97756.28;;;9.30;100.00
70103;BME280;57470;50.034;15.256;2023-04-01T01:22:25;97755.00;;;9.25;100.00
70103;BME280;57470;50.034;15.256;2023-04-01T01:25:18;97755.72;;;9.36;99.62
70103;BME280;57470;50.034;15.256;2023-04-01T01:31:02;97754.44;;;9.40;99.42
70103;BME280;57470;50.034;15.256;2023-04-01T01:33:42;97756.28;;;9.30;99.84
70103;BME280;57470;50.034;15.256;2023-04-01T01:36:13;97744.50;;;9.14;99.41
70103;BME280;57470;50.034;15.256;2023-04-01T01:38:41;97743.41;;;9.16;100.00
70103;BME280;57470;50.034;15.256;2023-04-01T01:41:07;97751.09;;;9.19;100.00
70103;BME280;57470;50.034;15.256;2023-04-01T01:43:40;97748.16;;;9.22;100.00
70103;BME280;57470;50.034;15.256;2023-04-01T01:46:11;97745.22;;;9.25;99.97
70103;BME280;57470;50.034;15.256;2023-04-01T01:48:38;97743.97;;;9.29;99.48
70103;BME280;57470;50.034;15.256;2023-04-01T01:51:06;97753.88;;;9.27;100.00
70103;BME280;57470;50.034;15.256;2023-04-01T01:53:31;97748.72;;;9.26;99.46
70103;BME280;57470;50.034;15.256;2023-04-01T01:55:57;97744.94;;;9.19;100.00
70103;BME280;57470;50.034;15.256;2023-04-01T01:58:29;97735.59;;;9.34;98.81
70103;BME280;57470;50.034;15.256;2023-04-01T02:01:02;97740.75;;;9.26;99.06
70103;BME280;57470;50.034;15.256;2023-04-01T02:03:33;97744.81;;;9.20;98.88
70103;BME280;57470;50.034;15.256;2023-04-01T02:06:04;97741.47;;;9.28;98.44
70103;BME280;57470;50.034;15.256;2023-04-01T02:11:20;97750.53;;;9.45;97.99
70103;BME280;57470;50.034;15.256;2023-04-01T02:17:17;97753.91;;;9.37;97.56
70103;BME280;57470;50.034;15.256;2023-04-01T02:19:58;97749.81;;;9.33;97.30
70103;BME280;57470;50.034;15.256;2023-04-01T02:22:29;97749.00;;;9.42;97.01
70103;BME280;57470;50.034;15.256;2023-04-01T02:25:06;97750.53;;;9.45;96.63
70103;BME280;57470;50.034;15.256;2023-04-01T02:27:34;97744.13;;;9.37;97.35
70103;BME280;57470;50.034;15.256;2023-04-01T02:30:00;97755.72;;;9.36;97.07
70103;BME280;57470;50.034;15.256;2023-04-01T02:32:29;97754.88;;;9.36;97.41
70103;BME280;57470;50.034;15.256;2023-04-01T02:34:57;97754.88;;;9.36;96.76
70103;BME280;57470;50.034;15.256;2023-04-01T02:37:26;97759.06;;;9.38;97.00
70103;BME280;57470;50.034;15.256;2023-04-01T02:39:53;97763.09;;;9.33;97.39
70103;BME280;57470;50.034;15.256;2023-04-01T02:42:19;97775.13;;;9.37;97.10
70103;BME280;57470;50.034;15.256;2023-04-01T02:44:46;97770.50;;;9.29;97.25
70103;BME280;57470;50.034;15.256;2023-04-01T02:47:13;97777.19;;;9.33;96.99
70103;BME280;57470;50.034;15.256;2023-04-01T02:49:40;97779.59;;;9.36;97.52
70103;BME280;57470;50.034;15.256;2023-04-01T02:52:07;97786.44;;;9.39;98.03
70103;BME280;57470;50.034;15.256;2023-04-01T02:54:33;97781.66;;;9.33;98.02
70103;BME280;57470;50.034;15.256;2023-04-01T02:56:58;97790.75;;;9.21;98.89
70103;BME280;57470;50.034;15.256;2023-04-01T02:59:24;97791.84;;;9.18;99.06
70103;BME280;57470;50.034;15.256;2023-04-01T03:01:49;97786.13;;;9.23;99.40
70103;BME280;57470;50.034;15.256;2023-04-01T03:04:15;97787.81;;;9.24;100.00
70103;BME280;57470;50.034;15.256;2023-04-01T03:06:40;97790.00;;;8.99;100.00
70103;BME280;57470;50.034;15.256;2023-04-01T03:09:05;97791.41;;;9.13;100.00
70103;BME280;57470;50.034;15.256;2023-04-01T03:11:31;97789.06;;;9.10;100.00
70103;BME280;57470;50.034;15.256;2023-04-01T03:13:56;97798.78;;;9.00;100.00
70103;BME280;57470;50.034;15.256;2023-04-01T03:16:22;97796.16;;;9.10;100.00
70103;BME280;57470;50.034;15.256;2023-04-01T03:18:47;97804.25;;;9.08;100.00
70103;BME280;57470;50.034;15.256;2023-04-01T03:21:24;97799.50;;;9.02;100.00
70103;BME280;57470;50.034;15.256;2023-04-01T03:23:49;97803.69;;;9.04;100.00
70103;BME280;57470;50.034;15.256;2023-04-01T03:26:15;97806.75;;;9.00;100.00
70103;BME280;57470;50.034;15.256;2023-04-01T03:28:42;97796.72;;;9.03;100.00
70103;BME280;57470;50.034;15.256;2023-04-01T03:31:08;97800.75;;;9.08;100.00
70103;BME280;57470;50.034;15.256;2023-04-01T03:33:34;97806.63;;;9.01;100.00
70103;BME280;57470;50.034;15.256;2023-04-01T03:35:59;97807.06;;;9.16;100.00
70103;BME280;57470;50.034;15.256;2023-04-01T03:38:25;97805.66;;;9.22;100.00
70103;BME280;57470;50.034;15.256;2023-04-01T03:40:50;97805.50;;;9.14;100.00
70103;BME280;57470;50.034;15.256;2023-04-01T03:43:16;97809.31;;;9.11;100.00
70103;BME280;57470;50.034;15.256;2023-04-01T03:45:50;97813.34;;;9.25;100.00
70103;BME280;57470;50.034;15.256;2023-04-01T03:48:15;97811.25;;;9.09;100.00
70103;BME280;57470;50.034;15.256;2023-04-01T03:50:41;97810.38;;;8.99;100.00
70103;BME280;57470;50.034;15.256;2023-04-01T03:53:07;97812.78;;;9.12;100.00
70103;BME280;57470;50.034;15.256;2023-04-01T03:55:33;97820.44;;;9.15;100.00
70103;BME280;57470;50.034;15.256;2023-04-01T03:57:58;97816.38;;;9.01;100.00
70103;BME280;57470;50.034;15.256;2023-04-01T04:00:24;97807.47;;;9.02;100.00
70103;BME280;57470;50.034;15.256;2023-04-01T04:02:50;97817.91;;;8.94;100.00
70103;BME280;57470;50.034;15.256;2023-04-01T04:05:15;97819.72;;;8.93;100.00
70103;BME280;57470;50.034;15.256;2023-04-01T04:07:41;97815.91;;;8.86;100.00
70103;BME280;57470;50.034;15.256;2023-04-01T04:10:06;97817.47;;;8.89;100.00
70103;BME280;57470;50.034;15.256;2023-04-01T04:12:32;97813.00;;;8.89;100.00
70103;BME280;57470;50.034;15.256;2023-04-01T04:14:57;97819.03;;;9.01;100.00
70103;BME280;57470;50.034;15.256;2023-04-01T04:17:23;97813.97;;;8.88;100.00
70103;BME280;57470;50.034;15.256;2023-04-01T04:19:48;97816.91;;;8.85;100.00
70103;BME280;57470;50.034;15.256;2023-04-01T04:22:14;97822.88;;;8.87;100.00
70103;BME280;57470;50.034;15.256;2023-04-01T04:24:39;97831.34;;;8.72;100.00
70103;BME280;57470;50.034;15.256;2023-04-01T04:27:05;97824.66;;;8.77;100.00
70103;BME280;57470;50.034;15.256;2023-04-01T04:29:30;97828.06;;;8.89;100.00
70103;BME280;57470;50.034;15.256;2023-04-01T04:31:56;97832.53;;;8.88;100.00
70103;BME280;57470;50.034;15.256;2023-04-01T04:34:21;97830.84;;;8.87;100.00
70103;BME280;57470;50.034;15.256;2023-04-01T04:36:47;97834.22;;;8.89;100.00
70103;BME280;57470;50.034;15.256;2023-04-01T04:39:13;97829.63;;;8.91;100.00
70103;BME280;57470;50.034;15.256;2023-04-01T04:41:41;97825.94;;;8.73;100.00
70103;BME280;57470;50.034;15.256;2023-04-01T04:44:06;97821.50;;;8.83;100.00
70103;BME280;57470;50.034;15.256;2023-04-01T04:46:32;97838.47;;;8.71;100.00
70103;BME280;57470;50.034;15.256;2023-04-01T04:48:58;97835.81;;;8.71;100.00
70103;BME280;57470;50.034;15.256;2023-04-01T04:51:23;97828.69;;;8.72;100.00
70103;BME280;57470;50.034;15.256;2023-04-01T04:53:49;97836.28;;;8.86;100.00
70103;BME280;57470;50.034;15.256;2023-04-01T04:56:19;97842.72;;;8.83;100.00
70103;BME280;57470;50.034;15.256;2023-04-01T04:58:45;97832.81;;;8.85;100.00
70103;BME280;57470;50.034;15.256;2023-04-01T05:01:13;97834.47;;;8.86;100.00
70103;BME280;57470;50.034;15.256;2023-04-01T05:03:38;97838.38;;;8.82;100.00
70103;BME280;57470;50.034;15.256;2023-04-01T05:06:05;97836.06;;;8.98;100.00
70103;BME280;57470;50.034;15.256;2023-04-01T05:08:32;97845.69;;;8.99;100.00
70103;BME280;57470;50.034;15.256;2023-04-01T05:11:01;97837.13;;;8.86;100.00
70103;BME280;57470;50.034;15.256;2023-04-01T05:13:28;97848.47;;;8.98;100.00
70103;BME280;57470;50.034;15.256;2023-04-01T05:15:54;97852.53;;;9.02;100.00
70103;BME280;57470;50.034;15.256;2023-04-01T05:18:20;97846.81;;;9.07;100.00
70103;BME280;57470;50.034;15.256;2023-04-01T05:20:54;97840.94;;;8.93;100.00
70103;BME280;57470;50.034;15.256;2023-04-01T05:23:21;97845.59;;;9.11;100.00
70103;BME280;57470;50.034;15.256;2023-04-01T05:25:50;97849.50;;;9.16;100.00
70103;BME280;57470;50.034;15.256;2023-04-01T05:28:18;97853.09;;;9.06;100.00
70103;BME280;57470;50.034;15.256;2023-04-01T05:30:44;97854.50;;;9.10;100.00
70103;BME280;57470;50.034;15.256;2023-04-01T05:33:11;97854.56;;;9.29;100.00
70103;BME280;57470;50.034;15.256;2023-04-01T05:35:37;97855.81;;;9.25;100.00
70103;BME280;57470;50.034;15.256;2023-04-01T05:38:03;97855.09;;;9.23;100.00
70103;BME280;57470;50.034;15.256;2023-04-01T05:40:29;97861.09;;;9.25;100.00
70103;BME280;57470;50.034;15.256;2023-04-01T05:42:55;97857.06;;;9.21;100.00
70103;BME280;57470;50.034;15.256;2023-04-01T05:45:20;97855.91;;;9.14;100.00
70103;BME280;57470;50.034;15.256;2023-04-01T05:47:45;97861.69;;;9.28;100.00
70103;BME280;57470;50.034;15.256;2023-04-01T05:50:11;97865.19;;;9.29;100.00
70103;BME280;57470;50.034;15.256;2023-04-01T05:52:38;97862.25;;;9.41;100.00
70103;BME280;57470;50.034;15.256;2023-04-01T05:55:05;97868.69;;;9.39;100.00
70103;BME280;57470;50.034;15.256;2023-04-01T05:57:30;97866.81;;;9.11;100.00
70103;BME280;57470;50.034;15.256;2023-04-01T05:59:56;97861.53;;;9.39;100.00
70103;BME280;57470;50.034;15.256;2023-04-01T06:02:21;97870.19;;;9.32;100.00
70103;BME280;57470;50.034;15.256;2023-04-01T06:04:46;97867.31;;;9.54;100.00
70103;BME280;57470;50.034;15.256;2023-04-01T06:07:17;97865.75;;;9.42;100.00
70103;BME280;57470;50.034;15.256;2023-04-01T06:09:44;97870.53;;;9.48;100.00
70103;BME280;57470;50.034;15.256;2023-04-01T06:12:35;97870.38;;;9.69;100.00
70103;BME280;57470;50.034;15.256;2023-04-01T06:20:27;97879.78;;;9.73;100.00
70103;BME280;57470;50.034;15.256;2023-04-01T06:31:26;97890.25;;;10.03;100.00
70103;BME280;57470;50.034;15.256;2023-04-01T06:37:07;97890.09;;;9.95;100.00
70103;BME280;57470;50.034;15.256;2023-04-01T06:42:50;97893.91;;;9.93;98.74
70103;BME280;57470;50.034;15.256;2023-04-01T06:51:04;97895.44;;;10.24;97.19
70103;BME280;57470;50.034;15.256;2023-04-01T06:56:19;97899.78;;;10.25;96.47
70103;BME280;57470;50.034;15.256;2023-04-01T07:01:22;97895.69;;;10.11;95.82
70103;BME280;57470;50.034;15.256;2023-04-01T07:03:58;97908.56;;;10.16;97.19
70103;BME280;57470;50.034;15.256;2023-04-01T07:06:36;97902.44;;;10.35;96.54
70103;BME280;57470;50.034;15.256;2023-04-01T07:09:12;97903.66;;;10.40;95.44
70103;BME280;57470;50.034;15.256;2023-04-01T07:11:38;97907.16;;;10.31;95.65
70103;BME280;57470;50.034;15.256;2023-04-01T07:14:20;97899.63;;;10.27;95.07
70103;BME280;57470;50.034;15.256;2023-04-01T07:17:01;97907.72;;;10.44;94.82
70103;BME280;57470;50.034;15.256;2023-04-01T07:19:44;97905.34;;;10.41;94.49
70103;BME280;57470;50.034;15.256;2023-04-01T07:22:21;97906.47;;;10.29;93.96
70103;BME280;57470;50.034;15.256;2023-04-01T07:24:53;97914.16;;;10.51;94.05
70103;BME280;57470;50.034;15.256;2023-04-01T07:27:19;97913.31;;;10.51;94.04
70103;BME280;57470;50.034;15.256;2023-04-01T07:29:44;97914.03;;;10.43;95.45
70103;BME280;57470;50.034;15.256;2023-04-01T07:32:24;97909.97;;;10.39;95.55
70103;BME280;57470;50.034;15.256;2023-04-01T07:35:13;97914.53;;;10.57;94.73
70103;BME280;57470;50.034;15.256;2023-04-01T07:37:45;97918.34;;;10.64;94.72
70103;BME280;57470;50.034;15.256;2023-04-01T07:40:31;97920.03;;;10.55;94.91
70103;BME280;57470;50.034;15.256;2023-04-01T07:48:54;97920.03;;;10.55;93.40
70103;BME280;57470;50.034;15.256;2023-04-01T07:51:41;97927.94;;;10.65;93.45
70103;BME280;57470;50.034;15.256;2023-04-01T08:12:54;97940.00;;;11.15;89.37
70103;BME280;57470;50.034;15.256;2023-04-01T08:15:34;97946.41;;;11.22;88.64
70103;BME280;57470;50.034;15.256;2023-04-01T08:20:58;97950.94;;;11.12;86.52
70103;BME280;57470;50.034;15.256;2023-04-01T08:23:30;97955.41;;;11.12;87.67
70103;BME280;57470;50.034;15.256;2023-04-01T08:28:41;97941.34;;;11.29;87.35
70103;BME280;57470;50.034;15.256;2023-04-01T08:31:16;97950.63;;;11.52;87.35
70103;BME280;57470;50.034;15.256;2023-04-01T08:33:46;97952.91;;;11.65;87.05
70103;BME280;57470;50.034;15.256;2023-04-01T08:36:22;97943.53;;;11.43;87.81
70103;BME280;57470;50.034;15.256;2023-04-01T08:39:04;97951.06;;;11.48;88.13
70103;BME280;57470;50.034;15.256;2023-04-01T08:44:29;97947.25;;;11.50;87.12
70103;BME280;57470;50.034;15.256;2023-04-01T09:01:51;97958.06;;;11.49;90.78
70103;BME280;57470;50.034;15.256;2023-04-01T09:18:59;97963.25;;;11.13;97.77
70103;BME280;57470;50.034;15.256;2023-04-01T09:21:55;97963.91;;;10.78;100.00
70103;BME280;57470;50.034;15.256;2023-04-01T09:24:46;97958.72;;;10.86;100.00
70103;BME280;57470;50.034;15.256;2023-04-01T09:27:27;97964.38;;;11.11;100.00
70103;BME280;57470;50.034;15.256;2023-04-01T09:37:43;97963.97;;;11.43;98.35
70103;BME280;57470;50.034;15.256;2023-04-01T09:40:23;97956.47;;;11.28;99.40
70103;BME280;57470;50.034;15.256;2023-04-01T09:43:12;97964.97;;;10.95;100.00
70103;BME280;57470;50.034;15.256;2023-04-01T10:03:46;97965.72;;;11.89;94.47
70103;BME280;57470;50.034;15.256;2023-04-01T10:06:35;97968.16;;;12.18;93.40
70103;BME280;57470;50.034;15.256;2023-04-01T10:20:21;97956.19;;;12.57;89.42
70103;BME280;57470;50.034;15.256;2023-04-01T10:23:00;97950.72;;;12.41;88.60
70103;BME280;57470;50.034;15.256;2023-04-01T10:36:54;97951.25;;;12.45;86.89
70103;BME280;57470;50.034;15.256;2023-04-01T10:39:34;97951.66;;;12.32;84.45
70103;BME280;57470;50.034;15.256;2023-04-01T10:51:10;97946.47;;;12.30;83.81
70103;BME280;57470;50.034;15.256;2023-04-01T10:56:39;97947.19;;;12.58;83.41
70103;BME280;57470;50.034;15.256;2023-04-01T11:15:45;97930.56;;;14.00;81.76
70103;BME280;57470;50.034;15.256;2023-04-01T11:27:05;97926.03;;;13.93;79.16
70103;BME280;57470;50.034;15.256;2023-04-01T11:29:48;97931.38;;;13.84;78.43
70103;BME280;57470;50.034;15.256;2023-04-01T11:46:25;97932.25;;;12.91;78.15
70103;BME280;57470;50.034;15.256;2023-04-01T12:00:52;97941.69;;;13.03;77.34
70103;BME280;57470;50.034;15.256;2023-04-01T12:03:30;97931.75;;;13.13;77.26
70103;BME280;57470;50.034;15.256;2023-04-01T12:06:02;97939.53;;;13.33;77.45
70103;BME280;57470;50.034;15.256;2023-04-01T12:11:55;97939.84;;;13.72;76.83
70103;BME280;57470;50.034;15.256;2023-04-01T12:17:39;97933.66;;;13.71;75.16
70103;BME280;57470;50.034;15.256;2023-04-01T12:30:37;97941.25;;;13.42;74.99
70103;BME280;57470;50.034;15.256;2023-04-01T12:54:38;97954.28;;;13.95;73.29
70103;BME280;57470;50.034;15.256;2023-04-01T13:03:35;97953.66;;;14.34;72.51
70103;BME280;57470;50.034;15.256;2023-04-01T13:17:13;97956.41;;;14.74;71.24
70103;BME280;57470;50.034;15.256;2023-04-01T13:19:58;97954.88;;;14.80;70.64
70103;BME280;57470;50.034;15.256;2023-04-01T13:22:51;97947.53;;;14.66;70.53
70103;BME280;57470;50.034;15.256;2023-04-01T13:28:22;97952.88;;;14.74;70.20
70103;BME280;57470;50.034;15.256;2023-04-01T13:31:00;97956.22;;;14.51;69.86
70103;BME280;57470;50.034;15.256;2023-04-01T13:36:26;97966.75;;;14.77;72.39
70103;BME280;57470;50.034;15.256;2023-04-01T13:44:15;97959.41;;;14.79;71.89
70103;BME280;57470;50.034;15.256;2023-04-01T13:47:29;97963.91;;;14.87;70.92
70103;BME280;57470;50.034;15.256;2023-04-01T13:58:26;97954.56;;;14.75;71.84
70103;BME280;57470;50.034;15.256;2023-04-01T14:06:20;97967.72;;;15.09;69.65
70103;BME280;57470;50.034;15.256;2023-04-01T14:09:05;97967.41;;;15.12;70.97
70103;BME280;57470;50.034;15.256;2023-04-01T14:23:02;97965.44;;;14.65;72.78
70103;BME280;57470;50.034;15.256;2023-04-01T14:36:55;97969.22;;;15.19;69.97
70103;BME280;57470;50.034;15.256;2023-04-01T14:48:13;97972.78;;;14.63;70.90
70103;BME280;57470;50.034;15.256;2023-04-01T14:50:51;97973.75;;;14.94;69.47
70103;BME280;57470;50.034;15.256;2023-04-01T14:55:56;97974.91;;;15.24;70.29
70103;BME280;57470;50.034;15.256;2023-04-01T14:58:24;97978.91;;;15.28;70.88
70103;BME280;57470;50.034;15.256;2023-04-01T15:01:06;97978.19;;;15.43;69.76
70103;BME280;57470;50.034;15.256;2023-04-01T15:09:19;97987.03;;;16.29;67.77
70103;BME280;57470;50.034;15.256;2023-04-01T15:20:21;97980.63;;;14.89;69.83
70103;BME280;57470;50.034;15.256;2023-04-01T15:28:29;97990.00;;;14.77;69.56
70103;BME280;57470;50.034;15.256;2023-04-01T15:42:31;97994.75;;;14.16;72.86
70103;BME280;57470;50.034;15.256;2023-04-01T15:45:35;98010.00;;;13.74;74.99
70103;BME280;57470;50.034;15.256;2023-04-01T15:50:48;98025.44;;;12.85;78.15
70103;BME280;57470;50.034;15.256;2023-04-01T15:53:29;98022.38;;;12.79;78.22
70103;BME280;57470;50.034;15.256;2023-04-01T15:58:42;98029.66;;;12.69;78.00
70103;BME280;57470;50.034;15.256;2023-04-01T16:01:33;98030.75;;;13.02;78.12
70103;BME280;57470;50.034;15.256;2023-04-01T16:07:09;98030.88;;;13.19;75.74
70103;BME280;57470;50.034;15.256;2023-04-01T16:09:40;98029.03;;;12.75;77.11
70103;BME280;57470;50.034;15.256;2023-04-01T16:12:36;98033.25;;;12.60;77.78
70103;BME280;57470;50.034;15.256;2023-04-01T16:26:52;98044.53;;;12.09;80.32
70103;BME280;57470;50.034;15.256;2023-04-01T16:28:57;98046.94;;;12.30;80.29
70103;BME280;57470;50.034;15.256;2023-04-01T16:31:46;98046.41;;;11.99;81.83
70103;BME280;57470;50.034;15.256;2023-04-01T16:34:21;98055.97;;;12.19;81.51
70103;BME280;57470;50.034;15.256;2023-04-01T16:37:07;98057.94;;;12.17;81.89
70103;BME280;57470;50.034;15.256;2023-04-01T16:48:01;98078.16;;;11.92;83.89
70103;BME280;57470;50.034;15.256;2023-04-01T16:50:59;98076.13;;;11.67;84.91
70103;BME280;57470;50.034;15.256;2023-04-01T16:53:41;98081.28;;;11.88;85.23
70103;BME280;57470;50.034;15.256;2023-04-01T16:56:15;98088.41;;;11.87;85.04
70103;BME280;57470;50.034;15.256;2023-04-01T16:59:06;98092.84;;;11.59;86.57
70103;BME280;57470;50.034;15.256;2023-04-01T17:04:43;98087.75;;;11.66;87.04
70103;BME280;57470;50.034;15.256;2023-04-01T17:13:02;98099.72;;;11.52;86.94
70103;BME280;57470;50.034;15.256;2023-04-01T17:15:46;98108.25;;;11.56;86.74
70103;BME280;57470;50.034;15.256;2023-04-01T17:21:38;98117.41;;;11.44;88.01
70103;BME280;57470;50.034;15.256;2023-04-01T17:27:25;98121.78;;;11.25;89.27
70103;BME280;57470;50.034;15.256;2023-04-01T17:35:32;98124.59;;;11.24;89.37
70103;BME280;57470;50.034;15.256;2023-04-01T17:48:29;98130.91;;;11.04;90.80
70103;BME280;57470;50.034;15.256;2023-04-01T17:51:35;98141.66;;;11.02;90.36
70103;BME280;57470;50.034;15.256;2023-04-01T17:54:17;98136.78;;;10.98;90.00
70103;BME280;57470;50.034;15.256;2023-04-01T17:59:39;98147.84;;;11.03;90.17
70103;BME280;57470;50.034;15.256;2023-04-01T18:05:37;98150.03;;;10.49;91.85
70103;BME280;57470;50.034;15.256;2023-04-01T18:08:21;98156.78;;;10.92;90.05
70103;BME280;57470;50.034;15.256;2023-04-01T18:14:09;98156.38;;;11.06;89.27
70103;BME280;57470;50.034;15.256;2023-04-01T18:19:46;98167.72;;;10.89;90.10
70103;BME280;57470;50.034;15.256;2023-04-01T18:22:21;98170.78;;;10.84;90.05
70103;BME280;57470;50.034;15.256;2023-04-01T18:25:01;98172.47;;;10.76;90.33
70103;BME280;57470;50.034;15.256;2023-04-01T18:27:38;98174.81;;;10.60;91.29
70103;BME280;57470;50.034;15.256;2023-04-01T18:30:28;98179.75;;;10.64;91.06
70103;BME280;57470;50.034;15.256;2023-04-01T18:38:35;98185.59;;;10.58;91.38
70103;BME280;57470;50.034;15.256;2023-04-01T18:52:28;98207.34;;;10.33;91.89
70103;BME280;57470;50.034;15.256;2023-04-01T18:57:49;98216.13;;;10.24;92.37
70103;BME280;57470;50.034;15.256;2023-04-01T19:00:21;98211.22;;;10.19;92.81
70103;BME280;57470;50.034;15.256;2023-04-01T19:05:33;98224.13;;;10.33;92.27
70103;BME280;57470;50.034;15.256;2023-04-01T19:10:51;98227.16;;;10.19;92.40
70103;BME280;57470;50.034;15.256;2023-04-01T19:17:02;98232.47;;;10.19;91.21
70103;BME280;57470;50.034;15.256;2023-04-01T19:20:01;98232.69;;;10.16;90.80
70103;BME280;57470;50.034;15.256;2023-04-01T19:25:21;98234.53;;;9.95;90.65
70103;BME280;57470;50.034;15.256;2023-04-01T19:27:50;98245.22;;;10.04;90.98
70103;BME280;57470;50.034;15.256;2023-04-01T19:38:43;98251.91;;;9.57;92.41
70103;BME280;57470;50.034;15.256;2023-04-01T19:43:50;98253.22;;;9.63;91.96
70103;BME280;57470;50.034;15.256;2023-04-01T19:51:41;98261.75;;;9.46;94.57
70103;BME280;57470;50.034;15.256;2023-04-01T20:04:43;98280.13;;;9.58;96.34
70103;BME280;57470;50.034;15.256;2023-04-01T20:07:36;98279.63;;;9.64;95.52
70103;BME280;57470;50.034;15.256;2023-04-01T20:15:36;98290.81;;;9.68;96.32
70103;BME280;57470;50.034;15.256;2023-04-01T20:18:12;98286.56;;;9.76;96.82
70103;BME280;57470;50.034;15.256;2023-04-01T20:20:39;98284.84;;;9.75;96.95
70103;BME280;57470;50.034;15.256;2023-04-01T20:23:54;98285.53;;;9.89;96.06
70103;BME280;57470;50.034;15.256;2023-04-01T20:26:27;98296.00;;;9.69;97.93
70103;BME280;57470;50.034;15.256;2023-04-01T20:45:10;98304.72;;;9.92;98.29
70103;BME280;57470;50.034;15.256;2023-04-01T20:53:05;98307.50;;;9.91;98.70
70103;BME280;57470;50.034;15.256;2023-04-01T20:56:02;98303.09;;;10.01;98.67
70103;BME280;57470;50.034;15.256;2023-04-01T20:58:50;98313.25;;;9.96;98.21
70103;BME280;57470;50.034;15.256;2023-04-01T21:04:27;98312.22;;;10.08;97.63
70103;BME280;57470;50.034;15.256;2023-04-01T21:07:32;98317.06;;;10.03;97.84
70103;BME280;57470;50.034;15.256;2023-04-01T21:20:54;98318.19;;;10.00;98.32
70103;BME280;57470;50.034;15.256;2023-04-01T21:34:43;98327.19;;;10.09;97.71
70103;BME280;57470;50.034;15.256;2023-04-01T21:37:36;98335.28;;;10.07;97.48
70103;BME280;57470;50.034;15.256;2023-04-01T21:40:27;98330.81;;;10.08;97.25
70103;BME280;57470;50.034;15.256;2023-04-01T21:43:21;98336.38;;;10.05;97.60
70103;BME280;57470;50.034;15.256;2023-04-01T21:58:21;98341.44;;;10.08;96.79
70103;BME280;57470;50.034;15.256;2023-04-01T22:06:11;98345.66;;;10.10;97.47
70103;BME280;57470;50.034;15.256;2023-04-01T22:08:59;98351.41;;;10.15;96.22
70103;BME280;57470;50.034;15.256;2023-04-01T22:14:01;98357.34;;;10.19;96.80
70103;BME280;57470;50.034;15.256;2023-04-01T22:16:54;98355.88;;;10.15;97.14
70103;BME280;57470;50.034;15.256;2023-04-01T22:19:39;98354.47;;;10.11;96.41
70103;BME280;57470;50.034;15.256;2023-04-01T22:22:45;98351.53;;;10.14;96.64
70103;BME280;57470;50.034;15.256;2023-04-01T22:25:19;98357.34;;;10.19;96.45
70103;BME280;57470;50.034;15.256;2023-04-01T22:27:56;98357.19;;;10.00;97.04
70103;BME280;57470;50.034;15.256;2023-04-01T22:30:41;98355.88;;;10.15;96.84
70103;BME280;57470;50.034;15.256;2023-04-01T22:36:23;98359.88;;;9.89;98.45
70103;BME280;57470;50.034;15.256;2023-04-01T22:52:10;98369.34;;;10.02;98.45
70103;BME280;57470;50.034;15.256;2023-04-01T22:54:48;98368.84;;;10.08;97.98
70103;BME280;57470;50.034;15.256;2023-04-01T22:57:46;98367.69;;;10.01;98.04
70103;BME280;57470;50.034;15.256;2023-04-01T23:00:20;98375.69;;;9.90;98.71
70103;BME280;57470;50.034;15.256;2023-04-01T23:03:11;98368.94;;;9.86;99.05
70103;BME280;57470;50.034;15.256;2023-04-01T23:05:53;98367.09;;;9.98;99.30
70103;BME280;57470;50.034;15.256;2023-04-01T23:11:20;98377.19;;;10.04;99.41
70103;BME280;57470;50.034;15.256;2023-04-01T23:16:33;98371.22;;;9.91;99.39